createdAt,value
2022-09-12T00:00:08.280Z,92.30
2022-09-12T00:00:39.820Z,92.23
2022-09-12T00:01:14.527Z,92.23
2022-09-12T00:01:46.146Z,92.25
2022-09-12T00:02:17.738Z,92.27
2022-09-12T00:02:55.775Z,92.21
2022-09-12T00:03:27.325Z,92.17
2022-09-12T00:04:00.820Z,92.20
2022-09-12T00:04:32.313Z,92.15
2022-09-12T00:05:04.333Z,92.24
2022-09-12T00:05:45.338Z,92.20
2022-09-12T00:06:23.479Z,92.30
2022-09-12T00:06:55.002Z,92.48
2022-09-12T00:07:26.534Z,92.41
2022-09-12T00:07:58.119Z,92.46
2022-09-12T00:08:29.622Z,92.52
2022-09-12T00:09:05.029Z,92.50
2022-09-12T00:09:36.539Z,92.34
2022-09-12T00:10:08.925Z,92.31
2022-09-12T00:10:42.169Z,92.37
2022-09-12T00:11:14.016Z,92.49
2022-09-12T00:11:46.937Z,92.80
2022-09-12T00:12:18.457Z,92.64
2022-09-12T00:12:50.091Z,92.59
2022-09-12T00:13:21.607Z,92.44
2022-09-12T00:14:00.001Z,92.39
2022-09-12T00:14:31.755Z,92.68
2022-09-12T00:15:04.064Z,92.49
2022-09-12T00:15:43.340Z,92.39
2022-09-12T00:16:26.190Z,92.59
2022-09-12T00:16:59.584Z,92.52
2022-09-12T00:17:31.105Z,92.48
2022-09-12T00:18:02.601Z,92.53
2022-09-12T00:18:34.530Z,92.59
2022-09-12T00:19:07.357Z,92.55
2022-09-12T00:19:38.863Z,92.76
2022-09-12T00:20:11.143Z,92.85
2022-09-12T00:20:44.621Z,92.71
2022-09-12T00:21:17.937Z,92.76
2022-09-12T00:21:49.490Z,92.59
2022-09-12T00:22:20.992Z,92.58
2022-09-12T00:22:52.489Z,92.79
2022-09-12T00:23:24.009Z,92.71
2022-09-12T00:23:55.893Z,92.66
2022-09-12T00:24:27.405Z,92.65
2022-09-12T00:24:58.925Z,92.68
2022-09-12T00:25:31.299Z,92.64
2022-09-12T00:26:05.988Z,92.58
2022-09-12T00:26:37.532Z,92.55
2022-09-12T00:27:09.039Z,92.61
2022-09-12T00:27:40.541Z,92.59
2022-09-12T00:28:13.653Z,92.52
2022-09-12T00:28:45.972Z,92.61
2022-09-12T00:29:19.861Z,92.57
2022-09-12T00:29:51.461Z,92.50
2022-09-12T00:30:22.986Z,92.53
2022-09-12T00:30:54.582Z,92.45
2022-09-12T00:31:27.995Z,92.50
2022-09-12T00:31:59.615Z,92.50
2022-09-12T00:32:31.272Z,92.44
2022-09-12T00:33:02.783Z,92.45
2022-09-12T00:33:34.993Z,92.36
2022-09-12T00:34:06.503Z,92.39
2022-09-12T00:34:38.039Z,92.32
2022-09-12T00:35:09.558Z,92.34
2022-09-12T00:35:45.819Z,92.33
2022-09-12T00:36:20.024Z,92.27
2022-09-12T00:36:51.721Z,92.14
2022-09-12T00:37:23.229Z,92.27
2022-09-12T00:37:54.925Z,92.32
2022-09-12T00:38:26.520Z,92.37
2022-09-12T00:38:58.330Z,92.45
2022-09-12T00:39:29.843Z,92.42
2022-09-12T00:40:01.669Z,92.45
2022-09-12T00:40:33.231Z,92.27
2022-09-12T00:41:06.452Z,92.37
2022-09-12T00:41:40.001Z,92.33
2022-09-12T00:42:12.185Z,92.26
2022-09-12T00:42:43.685Z,92.56
2022-09-12T00:43:35.403Z,92.53
2022-09-12T00:44:10.014Z,92.67
2022-09-12T00:44:47.814Z,92.62
2022-09-12T00:45:24.455Z,92.59
2022-09-12T00:45:58.247Z,92.54
2022-09-12T00:46:52.173Z,92.55
2022-09-12T00:47:31.949Z,92.76
2022-09-12T00:48:04.535Z,92.70
2022-09-12T00:48:43.919Z,92.82
2022-09-12T00:49:33.712Z,92.72
2022-09-12T00:50:07.719Z,92.90
2022-09-12T00:50:39.243Z,92.80
2022-09-12T00:51:11.259Z,92.86
2022-09-12T00:51:49.229Z,92.86
2022-09-12T00:52:24.113Z,92.93
2022-09-12T00:53:02.731Z,92.89
2022-09-12T00:53:34.657Z,92.91
2022-09-12T00:54:12.410Z,92.94
2022-09-12T00:54:50.071Z,93.02
2022-09-12T00:55:26.304Z,92.95
2022-09-12T00:55:59.121Z,92.90
2022-09-12T00:56:31.146Z,92.91
2022-09-12T00:57:06.529Z,93.07
2022-09-12T00:57:50.749Z,93.01
2022-09-12T00:58:26.313Z,92.84
2022-09-12T00:59:05.413Z,92.87
2022-09-12T00:59:45.566Z,93.03
2022-09-12T01:00:20.374Z,93.02
2022-09-12T01:00:52.446Z,92.78
2022-09-12T01:01:25.445Z,92.81
2022-09-12T01:01:58.974Z,92.83
2022-09-12T01:02:30.819Z,92.91
2022-09-12T01:03:09.505Z,92.93
2022-09-12T01:03:41.718Z,92.94
2022-09-12T01:04:13.777Z,92.91
2022-09-12T01:04:45.619Z,92.89
2022-09-12T01:05:17.742Z,92.87
2022-09-12T01:06:14.101Z,92.86
2022-09-12T01:06:47.065Z,92.80
2022-09-12T01:07:19.638Z,93.03
2022-09-12T01:07:52.331Z,93.09
2022-09-12T01:08:25.879Z,93.03
2022-09-12T01:08:59.307Z,92.95
2022-09-12T01:09:30.838Z,92.93
2022-09-12T01:10:03.194Z,92.83
2022-09-12T01:10:37.661Z,93.01
2022-09-12T01:11:11.181Z,93.01
2022-09-12T01:11:46.145Z,92.96
2022-09-12T01:12:17.825Z,93.04
2022-09-12T01:12:50.040Z,92.91
2022-09-12T01:13:22.542Z,92.88
2022-09-12T01:13:54.789Z,93.00
2022-09-12T01:14:26.550Z,92.93
2022-09-12T01:14:58.074Z,92.97
2022-09-12T01:15:30.817Z,93.15
2022-09-12T01:16:06.695Z,93.23
2022-09-12T01:16:38.583Z,93.28
2022-09-12T01:17:14.961Z,93.34
2022-09-12T01:17:52.155Z,93.32
2022-09-12T01:18:34.354Z,93.56
2022-09-12T01:19:12.713Z,93.54
2022-09-12T01:20:17.001Z,93.50
2022-09-12T01:21:15.206Z,93.53
2022-09-12T01:22:12.790Z,93.47
2022-09-12T01:23:11.913Z,93.51
2022-09-12T01:23:58.430Z,93.62
2022-09-12T01:24:51.795Z,93.44
2022-09-12T01:26:05.363Z,93.56
2022-09-12T01:27:11.063Z,93.58
2022-09-12T01:28:10.213Z,93.49
2022-09-12T01:29:03.590Z,93.46
2022-09-12T01:30:12.549Z,93.51
2022-09-12T01:30:47.662Z,93.51
2022-09-12T01:32:05.294Z,93.51
2022-09-12T01:33:01.440Z,93.56
2022-09-12T01:34:12.170Z,93.55
2022-09-12T01:34:59.335Z,93.58
2022-09-12T01:35:44.997Z,93.60
2022-09-12T01:36:51.207Z,93.48
2022-09-12T01:37:45.835Z,93.35
2022-09-12T01:38:23.455Z,93.29
2022-09-12T01:39:21.166Z,93.38
2022-09-12T01:40:15.951Z,93.36
2022-09-12T01:41:19.325Z,93.49
2022-09-12T01:41:52.048Z,93.50
2022-09-12T01:42:46.998Z,93.44
2022-09-12T01:43:26.680Z,93.46
2022-09-12T01:44:23.506Z,93.52
2022-09-12T01:45:09.405Z,93.40
2022-09-12T01:45:53.128Z,93.53
2022-09-12T01:46:49.158Z,93.51
2022-09-12T01:47:40.744Z,93.50
2022-09-12T01:48:44.339Z,93.52
2022-09-12T01:49:37.573Z,93.50
2022-09-12T01:50:35.587Z,93.47
2022-09-12T01:51:26.396Z,93.43
2022-09-12T01:52:25.094Z,93.54
2022-09-12T01:53:04.745Z,93.53
2022-09-12T01:53:46.765Z,93.40
2022-09-12T01:54:27.318Z,93.40
2022-09-12T01:55:10.267Z,93.34
2022-09-12T01:55:47.028Z,93.45
2022-09-12T01:56:26.543Z,93.37
2022-09-12T01:57:03.878Z,93.26
2022-09-12T01:57:44.691Z,93.38
2022-09-12T01:58:22.576Z,93.58
2022-09-12T01:59:16.834Z,93.55
2022-09-12T01:59:54.277Z,93.62
2022-09-12T02:01:18.090Z,93.46
2022-09-12T02:02:00.910Z,93.51
2022-09-12T02:02:55.504Z,93.39
2022-09-12T02:03:56.187Z,93.46
2022-09-12T02:04:44.822Z,93.41
2022-09-12T02:05:34.833Z,93.38
2022-09-12T02:06:12.878Z,93.19
2022-09-12T02:06:49.311Z,93.29
2022-09-12T02:07:28.992Z,93.44
2022-09-12T02:08:03.358Z,93.40
2022-09-12T02:08:44.239Z,93.29
2022-09-12T02:09:27.964Z,93.39
2022-09-12T02:10:12.709Z,93.29
2022-09-12T02:10:49.471Z,93.18
2022-09-12T02:11:21.682Z,93.53
2022-09-12T02:11:59.850Z,93.46
2022-09-12T02:12:40.186Z,93.50
2022-09-12T02:13:29.598Z,93.52
2022-09-12T02:14:06.526Z,93.67
2022-09-12T02:14:42.648Z,93.61
2022-09-12T02:15:17.186Z,93.54
2022-09-12T02:16:00.317Z,93.45
2022-09-12T02:16:37.215Z,93.43
2022-09-12T02:17:13.440Z,93.38
2022-09-12T02:17:49.950Z,93.35
2022-09-12T02:18:21.576Z,93.31
2022-09-12T02:18:57.491Z,93.26
2022-09-12T02:19:35.898Z,93.33
2022-09-12T02:20:48.104Z,93.27
2022-09-12T02:21:22.520Z,93.15
2022-09-12T02:21:56.993Z,93.27
2022-09-12T02:22:31.182Z,93.24
2022-09-12T02:23:05.982Z,93.25
2022-09-12T02:23:47.710Z,93.22
2022-09-12T02:24:21.246Z,93.29
2022-09-12T02:24:57.344Z,93.26
2022-09-12T02:25:29.604Z,93.28
2022-09-12T02:26:08.778Z,93.43
2022-09-12T02:26:59.931Z,93.43
2022-09-12T02:27:58.763Z,93.32
2022-09-12T02:28:34.229Z,93.38
2022-09-12T02:29:07.025Z,93.29
2022-09-12T02:29:38.644Z,93.38
2022-09-12T02:30:14.332Z,93.55
2022-09-12T02:31:01.091Z,93.73
2022-09-12T02:31:55.618Z,93.65
2022-09-12T02:33:05.983Z,93.66
2022-09-12T02:34:02.038Z,93.76
2022-09-12T02:35:12.026Z,93.78
2022-09-12T02:35:58.121Z,93.75
2022-09-12T02:36:35.527Z,93.78
2022-09-12T02:37:10.952Z,93.96
2022-09-12T02:38:09.283Z,93.74
2022-09-12T02:38:45.852Z,93.65
2022-09-12T02:39:21.199Z,93.62
2022-09-12T02:39:57.297Z,93.74
2022-09-12T02:40:30.956Z,93.74
2022-09-12T02:41:02.540Z,93.85
2022-09-12T02:41:34.188Z,93.65
2022-09-12T02:42:06.096Z,93.69
2022-09-12T02:42:38.085Z,93.53
2022-09-12T02:43:09.640Z,93.56
2022-09-12T02:43:41.330Z,93.54
2022-09-12T02:44:13.080Z,93.60
2022-09-12T02:44:44.587Z,93.68
2022-09-12T02:45:17.435Z,93.75
2022-09-12T02:45:49.269Z,93.68
2022-09-12T02:46:26.714Z,93.65
2022-09-12T02:47:20.580Z,93.64
2022-09-12T02:47:58.837Z,93.73
2022-09-12T02:48:33.819Z,93.75
2022-09-12T02:49:05.459Z,93.59
2022-09-12T02:49:37.385Z,93.48
2022-09-12T02:50:09.194Z,93.49
2022-09-12T02:50:42.044Z,93.41
2022-09-12T02:51:13.846Z,93.50
2022-09-12T02:51:46.561Z,93.50
2022-09-12T02:52:18.435Z,93.60
2022-09-12T02:52:51.123Z,93.59
2022-09-12T02:53:23.342Z,93.75
2022-09-12T02:53:55.239Z,93.72
2022-09-12T02:54:28.081Z,93.67
2022-09-12T02:54:59.878Z,93.67
2022-09-12T02:55:33.529Z,93.82
2022-09-12T02:56:10.816Z,93.78
2022-09-12T02:56:44.323Z,93.75
2022-09-12T02:57:23.031Z,93.80
2022-09-12T02:57:54.836Z,93.63
2022-09-12T02:58:30.995Z,93.57
2022-09-12T02:59:08.176Z,93.53
2022-09-12T02:59:39.723Z,93.71
2022-09-12T03:00:12.376Z,93.55
2022-09-12T03:01:11.537Z,93.42
2022-09-12T03:01:58.137Z,93.58
2022-09-12T03:02:52.901Z,93.47
2022-09-12T03:04:01.860Z,93.61
2022-09-12T03:04:55.609Z,93.46
2022-09-12T03:05:32.904Z,93.78
2022-09-12T03:06:28.415Z,93.61
2022-09-12T03:07:18.836Z,93.67
2022-09-12T03:08:11.832Z,93.41
2022-09-12T03:09:00.334Z,93.47
2022-09-12T03:09:48.162Z,93.42
2022-09-12T03:10:48.721Z,93.50
2022-09-12T03:12:04.243Z,93.30
2022-09-12T03:12:53.964Z,93.24
2022-09-12T03:13:48.376Z,93.35
2022-09-12T03:14:53.611Z,93.14
2022-09-12T03:15:32.078Z,93.27
2022-09-12T03:16:19.790Z,93.22
2022-09-12T03:17:02.792Z,93.12
2022-09-12T03:17:47.252Z,93.28
2022-09-12T03:18:37.219Z,93.05
2022-09-12T03:19:33.438Z,93.05
2022-09-12T03:20:09.364Z,93.01
2022-09-12T03:20:57.449Z,92.97
2022-09-12T03:21:37.236Z,92.89
2022-09-12T03:22:22.271Z,93.06
2022-09-12T03:22:58.434Z,93.18
2022-09-12T03:23:48.591Z,93.28
2022-09-12T03:24:57.269Z,93.08
2022-09-12T03:25:35.717Z,92.91
2022-09-12T03:26:31.938Z,93.01
2022-09-12T03:27:16.374Z,93.04
2022-09-12T03:28:01.327Z,93.08
2022-09-12T03:28:35.683Z,93.03
2022-09-12T03:29:08.529Z,93.39
2022-09-12T03:29:41.880Z,92.99
2022-09-12T03:30:13.524Z,92.89
2022-09-12T03:30:47.343Z,92.84
2022-09-12T03:31:20.033Z,92.80
2022-09-12T03:31:56.920Z,92.95
2022-09-12T03:32:48.635Z,92.92
2022-09-12T03:33:24.953Z,92.88
2022-09-12T03:33:56.439Z,92.89
2022-09-12T03:34:28.422Z,93.04
2022-09-12T03:34:59.927Z,92.96
2022-09-12T03:35:31.451Z,93.07
2022-09-12T03:36:03.146Z,93.00
2022-09-12T03:36:34.685Z,93.14
2022-09-12T03:37:06.669Z,92.99
2022-09-12T03:37:38.429Z,93.00
2022-09-12T03:38:09.990Z,93.17
2022-09-12T03:38:41.525Z,93.23
2022-09-12T03:39:13.402Z,93.14
2022-09-12T03:39:44.968Z,93.21
2022-09-12T03:40:16.859Z,93.22
2022-09-12T03:40:52.671Z,93.17
2022-09-12T03:41:26.174Z,93.23
2022-09-12T03:41:58.142Z,93.19
2022-09-12T03:42:29.630Z,93.29
2022-09-12T03:43:01.357Z,93.29
2022-09-12T03:43:32.935Z,93.24
2022-09-12T03:44:04.493Z,93.46
2022-09-12T03:44:35.981Z,93.53
2022-09-12T03:45:08.919Z,93.47
2022-09-12T03:45:40.522Z,93.39
2022-09-12T03:46:13.493Z,93.47
2022-09-12T03:46:45.145Z,93.46
2022-09-12T03:47:16.653Z,93.64
2022-09-12T03:47:48.155Z,93.63
2022-09-12T03:48:19.673Z,93.68
2022-09-12T03:48:51.261Z,93.60
2022-09-12T03:49:22.801Z,93.70
2022-09-12T03:49:54.313Z,93.69
2022-09-12T03:50:25.936Z,93.64
2022-09-12T03:51:05.771Z,93.65
2022-09-12T03:51:38.273Z,93.66
2022-09-12T03:52:09.773Z,93.59
2022-09-12T03:52:41.954Z,93.69
2022-09-12T03:53:17.036Z,93.65
2022-09-12T03:53:49.085Z,93.69
2022-09-12T03:54:20.604Z,93.67
2022-09-12T03:54:52.194Z,93.83
2022-09-12T03:55:23.700Z,93.76
2022-09-12T03:55:55.219Z,93.57
2022-09-12T03:56:26.753Z,93.82
2022-09-12T03:56:58.270Z,93.78
2022-09-12T03:57:29.829Z,93.81
2022-09-12T03:58:01.333Z,93.63
2022-09-12T03:58:33.865Z,93.59
2022-09-12T03:59:06.784Z,93.69
2022-09-12T03:59:38.402Z,93.59
2022-09-12T04:00:10.275Z,94.04
2022-09-12T04:00:43.069Z,94.13
2022-09-12T04:01:17.691Z,93.85
2022-09-12T04:01:49.237Z,93.86
2022-09-12T04:02:21.186Z,93.69
2022-09-12T04:02:57.379Z,93.86
2022-09-12T04:03:28.877Z,93.70
2022-09-12T04:04:00.467Z,93.81
2022-09-12T04:04:32.377Z,93.79
2022-09-12T04:05:04.734Z,93.58
2022-09-12T04:05:36.261Z,93.60
2022-09-12T04:06:09.929Z,93.59
2022-09-12T04:06:42.882Z,93.52
2022-09-12T04:07:15.999Z,93.87
2022-09-12T04:07:47.570Z,93.61
2022-09-12T04:08:19.075Z,93.68
2022-09-12T04:08:52.627Z,93.62
2022-09-12T04:09:24.592Z,93.56
2022-09-12T04:09:56.412Z,93.54
2022-09-12T04:10:27.966Z,93.45
2022-09-12T04:11:11.021Z,93.51
2022-09-12T04:11:42.528Z,93.56
2022-09-12T04:12:14.090Z,93.39
2022-09-12T04:12:45.642Z,93.49
2022-09-12T04:13:17.151Z,93.50
2022-09-12T04:13:48.804Z,93.48
2022-09-12T04:14:20.472Z,93.42
2022-09-12T04:14:51.992Z,93.22
2022-09-12T04:15:23.513Z,93.09
2022-09-12T04:15:59.612Z,92.97
2022-09-12T04:16:32.358Z,93.09
2022-09-12T04:17:04.185Z,93.18
2022-09-12T04:17:35.746Z,93.29
2022-09-12T04:18:07.311Z,93.28
2022-09-12T04:18:38.977Z,93.35
2022-09-12T04:19:11.787Z,93.46
2022-09-12T04:19:43.290Z,93.48
2022-09-12T04:20:14.913Z,93.53
2022-09-12T04:20:46.414Z,93.47
2022-09-12T04:21:19.811Z,93.38
2022-09-12T04:21:51.336Z,93.64
2022-09-12T04:22:22.855Z,93.66
2022-09-12T04:22:54.438Z,93.56
2022-09-12T04:23:25.922Z,93.63
2022-09-12T04:23:57.568Z,93.99
2022-09-12T04:24:29.138Z,93.89
2022-09-12T04:25:00.774Z,93.81
2022-09-12T04:25:32.308Z,93.77
2022-09-12T04:26:07.855Z,93.56
2022-09-12T04:26:39.848Z,93.66
2022-09-12T04:27:11.328Z,93.68
2022-09-12T04:27:42.907Z,93.95
2022-09-12T04:28:14.415Z,93.89
2022-09-12T04:28:46.888Z,93.75
2022-09-12T04:29:18.590Z,94.05
2022-09-12T04:29:50.092Z,93.97
2022-09-12T04:30:21.716Z,93.73
2022-09-12T04:30:53.319Z,93.63
2022-09-12T04:31:25.740Z,94.03
2022-09-12T04:31:57.440Z,93.91
2022-09-12T04:32:31.120Z,93.90
2022-09-12T04:33:07.429Z,93.87
2022-09-12T04:33:39.900Z,93.85
2022-09-12T04:34:11.558Z,93.77
2022-09-12T04:34:43.084Z,93.87
2022-09-12T04:35:14.698Z,93.74
2022-09-12T04:35:46.215Z,93.69
2022-09-12T04:36:17.870Z,93.50
2022-09-12T04:36:49.448Z,93.48
2022-09-12T04:37:21.842Z,93.59
2022-09-12T04:37:53.599Z,93.49
2022-09-12T04:38:25.222Z,93.39
2022-09-12T04:38:56.747Z,93.25
2022-09-12T04:39:28.280Z,93.34
2022-09-12T04:39:59.836Z,93.46
2022-09-12T04:40:31.513Z,93.50
2022-09-12T04:41:16.550Z,93.56
2022-09-12T04:41:48.075Z,93.56
2022-09-12T04:42:19.577Z,93.41
2022-09-12T04:42:51.104Z,93.30
2022-09-12T04:43:22.637Z,93.35
2022-09-12T04:44:01.634Z,93.25
2022-09-12T04:44:33.156Z,93.20
2022-09-12T04:45:06.225Z,93.09
2022-09-12T04:45:37.888Z,93.14
2022-09-12T04:46:11.550Z,92.97
2022-09-12T04:46:45.922Z,93.12
2022-09-12T04:47:17.409Z,92.97
2022-09-12T04:47:49.182Z,93.03
2022-09-12T04:48:20.740Z,93.23
2022-09-12T04:48:56.679Z,93.19
2022-09-12T04:49:28.694Z,93.15
2022-09-12T04:50:00.176Z,93.46
2022-09-12T04:50:31.717Z,93.59
2022-09-12T04:51:11.544Z,93.52
2022-09-12T04:51:43.505Z,93.46
2022-09-12T04:52:15.009Z,93.40
2022-09-12T04:52:54.152Z,93.24
2022-09-12T04:53:25.640Z,93.24
2022-09-12T04:54:02.092Z,93.28
2022-09-12T04:54:34.265Z,93.29
2022-09-12T04:55:06.343Z,93.32
2022-09-12T04:55:37.856Z,93.22
2022-09-12T04:56:11.643Z,93.41
2022-09-12T04:56:45.446Z,93.30
2022-09-12T04:57:16.939Z,93.26
2022-09-12T04:57:48.682Z,93.26
2022-09-12T04:58:20.172Z,93.25
2022-09-12T04:58:52.334Z,93.40
2022-09-12T04:59:23.907Z,93.63
2022-09-12T04:59:55.443Z,93.37
2022-09-12T05:00:27.021Z,93.40
2022-09-12T05:01:11.743Z,93.51
2022-09-12T05:01:43.408Z,93.38
2022-09-12T05:02:15.069Z,93.38
2022-09-12T05:02:46.644Z,93.50
2022-09-12T05:03:18.152Z,93.59
2022-09-12T05:03:50.854Z,93.43
2022-09-12T05:04:22.535Z,93.28
2022-09-12T05:04:54.255Z,93.31
2022-09-12T05:05:25.837Z,93.11
2022-09-12T05:05:57.341Z,93.29
2022-09-12T05:06:31.841Z,93.48
2022-09-12T05:07:03.378Z,93.69
2022-09-12T05:07:35.593Z,93.69
2022-09-12T05:08:07.176Z,93.53
2022-09-12T05:08:38.994Z,93.70
2022-09-12T05:09:12.338Z,93.71
2022-09-12T05:09:43.857Z,93.75
2022-09-12T05:10:15.394Z,93.63
2022-09-12T05:10:46.902Z,93.61
2022-09-12T05:11:28.231Z,93.43
2022-09-12T05:12:06.100Z,93.46
2022-09-12T05:12:37.656Z,93.37
2022-09-12T05:13:09.522Z,93.37
2022-09-12T05:13:41.659Z,93.33
2022-09-12T05:14:13.263Z,93.20
2022-09-12T05:14:44.768Z,93.45
2022-09-12T05:15:16.302Z,93.28
2022-09-12T05:16:01.886Z,93.45
2022-09-12T05:16:33.573Z,93.41
2022-09-12T05:17:06.064Z,93.68
2022-09-12T05:17:37.623Z,93.58
2022-09-12T05:18:09.110Z,93.51
2022-09-12T05:18:42.271Z,93.20
2022-09-12T05:19:13.823Z,93.03
2022-09-12T05:19:45.446Z,93.04
2022-09-12T05:20:17.407Z,93.07
2022-09-12T05:20:49.049Z,93.05
2022-09-12T05:21:23.169Z,93.11
2022-09-12T05:21:54.657Z,93.01
2022-09-12T05:22:26.171Z,93.05
2022-09-12T05:22:57.668Z,92.95
2022-09-12T05:23:29.626Z,92.91
2022-09-12T05:24:01.172Z,92.94
2022-09-12T05:24:32.935Z,92.84
2022-09-12T05:25:05.750Z,92.77
2022-09-12T05:25:37.289Z,92.82
2022-09-12T05:26:11.555Z,92.72
2022-09-12T05:26:43.063Z,92.84
2022-09-12T05:27:15.122Z,92.81
2022-09-12T05:27:50.431Z,92.71
2022-09-12T05:28:22.769Z,92.71
2022-09-12T05:28:55.092Z,92.64
2022-09-12T05:29:26.681Z,92.75
2022-09-12T05:29:58.172Z,92.72
2022-09-12T05:30:29.702Z,92.83
2022-09-12T05:31:27.627Z,92.66
2022-09-12T05:31:59.128Z,92.96
2022-09-12T05:32:33.765Z,92.79
2022-09-12T05:33:05.335Z,92.60
2022-09-12T05:33:38.563Z,92.37
2022-09-12T05:34:10.271Z,92.56
2022-09-12T05:34:41.947Z,92.40
2022-09-12T05:35:13.481Z,92.12
2022-09-12T05:35:52.185Z,91.98
2022-09-12T05:36:27.719Z,92.22
2022-09-12T05:36:59.296Z,92.09
2022-09-12T05:37:30.846Z,92.09
2022-09-12T05:38:02.361Z,91.95
2022-09-12T05:38:37.705Z,91.96
2022-09-12T05:39:09.443Z,91.92
2022-09-12T05:39:41.206Z,91.95
2022-09-12T05:40:16.156Z,92.26
2022-09-12T05:40:47.676Z,92.09
2022-09-12T05:41:27.801Z,92.55
2022-09-12T05:41:59.285Z,92.33
2022-09-12T05:42:30.869Z,92.26
2022-09-12T05:43:02.401Z,92.18
2022-09-12T05:43:34.701Z,92.04
2022-09-12T05:44:07.576Z,92.15
2022-09-12T05:44:39.136Z,91.86
2022-09-12T05:45:10.837Z,91.78
2022-09-12T05:45:42.494Z,91.82
2022-09-12T05:46:20.099Z,91.62
2022-09-12T05:46:53.582Z,91.46
2022-09-12T05:47:25.083Z,91.37
2022-09-12T05:47:56.569Z,90.66
2022-09-12T05:48:28.897Z,91.04
2022-09-12T05:49:04.111Z,90.93
2022-09-12T05:49:36.147Z,90.54
2022-09-12T05:50:10.881Z,90.58
2022-09-12T05:50:42.467Z,90.41
2022-09-12T05:51:20.354Z,90.31
2022-09-12T05:51:54.215Z,90.28
2022-09-12T05:52:26.459Z,90.50
2022-09-12T05:52:57.966Z,90.60
2022-09-12T05:53:31.041Z,90.83
2022-09-12T05:54:03.551Z,91.00
2022-09-12T05:54:35.077Z,90.90
2022-09-12T05:55:07.074Z,91.14
2022-09-12T05:55:38.588Z,91.10
2022-09-12T05:56:12.599Z,91.09
2022-09-12T05:56:45.028Z,90.95
2022-09-12T05:57:16.652Z,91.04
2022-09-12T05:57:48.205Z,90.93
2022-09-12T05:58:20.493Z,91.27
2022-09-12T05:58:58.564Z,90.95
2022-09-12T05:59:32.459Z,90.77
2022-09-12T06:00:05.941Z,90.68
2022-09-12T06:00:37.480Z,90.58
2022-09-12T06:01:12.386Z,90.56
2022-09-12T06:01:44.674Z,90.62
2022-09-12T06:02:16.253Z,90.62
2022-09-12T06:02:54.074Z,90.34
2022-09-12T06:03:25.612Z,90.20
2022-09-12T06:04:02.109Z,90.26
2022-09-12T06:04:33.603Z,90.25
2022-09-12T06:05:05.425Z,90.19
2022-09-12T06:05:36.921Z,90.25
2022-09-12T06:06:09.114Z,90.09
2022-09-12T06:06:44.885Z,90.02
2022-09-12T06:07:16.394Z,89.86
2022-09-12T06:07:48.416Z,89.91
2022-09-12T06:08:20.000Z,90.21
2022-09-12T06:08:54.707Z,90.34
2022-09-12T06:09:26.286Z,90.22
2022-09-12T06:09:59.275Z,90.12
2022-09-12T06:10:30.974Z,90.20
2022-09-12T06:11:04.453Z,90.22
2022-09-12T06:11:40.793Z,89.91
2022-09-12T06:12:12.322Z,90.00
2022-09-12T06:12:43.836Z,89.94
2022-09-12T06:13:15.314Z,90.04
2022-09-12T06:13:47.166Z,89.68
2022-09-12T06:14:19.513Z,89.45
2022-09-12T06:14:51.064Z,89.85
2022-09-12T06:15:22.851Z,89.55
2022-09-12T06:15:54.530Z,89.28
2022-09-12T06:16:28.929Z,89.46
2022-09-12T06:17:00.610Z,89.57
2022-09-12T06:17:32.386Z,89.47
2022-09-12T06:18:04.051Z,89.00
2022-09-12T06:18:36.117Z,88.89
2022-09-12T06:19:19.021Z,88.99
2022-09-12T06:19:51.097Z,89.14
2022-09-12T06:20:22.614Z,89.22
2022-09-12T06:20:54.099Z,88.76
2022-09-12T06:21:26.817Z,88.53
2022-09-12T06:21:58.826Z,88.52
2022-09-12T06:22:31.637Z,88.23
2022-09-12T06:23:03.137Z,88.37
2022-09-12T06:23:34.933Z,88.30
2022-09-12T06:24:07.583Z,88.13
2022-09-12T06:24:39.089Z,88.12
2022-09-12T06:25:10.614Z,87.48
2022-09-12T06:25:48.091Z,86.57
2022-09-12T06:26:23.355Z,86.65
2022-09-12T06:26:54.880Z,86.40
2022-09-12T06:27:26.655Z,86.43
2022-09-12T06:27:58.183Z,86.74
2022-09-12T06:28:30.549Z,86.16
2022-09-12T06:29:02.372Z,86.54
2022-09-12T06:29:33.902Z,86.77
2022-09-12T06:30:06.947Z,86.42
2022-09-12T06:30:38.570Z,86.19
2022-09-12T06:31:13.125Z,86.42
2022-09-12T06:31:45.504Z,86.31
2022-09-12T06:32:17.014Z,85.83
2022-09-12T06:32:48.523Z,84.77
2022-09-12T06:33:20.856Z,84.08
2022-09-12T06:33:54.215Z,84.32
2022-09-12T06:34:27.097Z,83.72
2022-09-12T06:34:58.745Z,83.31
2022-09-12T06:35:30.263Z,83.37
2022-09-12T06:36:12.505Z,83.92
2022-09-12T06:36:47.217Z,84.19
2022-09-12T06:37:18.782Z,83.88
2022-09-12T06:37:50.293Z,83.79
2022-09-12T06:38:21.812Z,84.04
2022-09-12T06:39:11.191Z,83.39
2022-09-12T06:39:42.729Z,83.90
2022-09-12T06:40:14.485Z,83.87
2022-09-12T06:40:46.366Z,84.79
2022-09-12T06:41:17.920Z,84.19
2022-09-12T06:41:51.360Z,84.23
2022-09-12T06:42:23.263Z,83.75
2022-09-12T06:42:54.778Z,84.55
2022-09-12T06:43:27.277Z,83.97
2022-09-12T06:43:59.456Z,83.76
2022-09-12T06:44:31.683Z,83.90
2022-09-12T06:45:03.329Z,83.75
2022-09-12T06:45:34.825Z,83.65
2022-09-12T06:46:07.607Z,83.82
2022-09-12T06:46:39.162Z,83.45
2022-09-12T06:47:10.884Z,83.46
2022-09-12T06:47:42.399Z,83.89
2022-09-12T06:48:13.918Z,83.20
2022-09-12T06:48:45.643Z,83.02
2022-09-12T06:49:17.841Z,82.77
2022-09-12T06:49:50.965Z,83.22
2022-09-12T06:50:22.478Z,82.83
2022-09-12T06:51:02.889Z,82.20
2022-09-12T06:51:36.293Z,82.05
2022-09-12T06:52:08.739Z,81.73
2022-09-12T06:52:40.448Z,81.56
2022-09-12T06:53:11.993Z,81.02
2022-09-12T06:53:45.305Z,80.13
2022-09-12T06:54:17.255Z,79.46
2022-09-12T06:54:49.172Z,79.07
2022-09-12T06:55:23.576Z,78.76
2022-09-12T06:56:00.626Z,78.30
2022-09-12T06:56:32.307Z,77.63
2022-09-12T06:57:04.306Z,77.52
2022-09-12T06:57:38.819Z,77.37
2022-09-12T06:58:10.882Z,77.55
2022-09-12T06:58:43.463Z,77.79
2022-09-12T06:59:15.042Z,76.84
2022-09-12T06:59:46.561Z,75.94
2022-09-12T07:00:18.213Z,75.91
2022-09-12T07:00:49.998Z,75.27
2022-09-12T07:01:30.449Z,77.02
2022-09-12T07:02:02.022Z,76.92
2022-09-12T07:02:33.715Z,75.40
2022-09-12T07:03:06.845Z,74.68
2022-09-12T07:03:39.218Z,74.50
2022-09-12T07:04:11.562Z,74.59
2022-09-12T07:04:43.441Z,75.07
2022-09-12T07:05:15.616Z,75.02
2022-09-12T07:05:47.704Z,74.86
2022-09-12T07:06:21.111Z,74.07
2022-09-12T07:06:52.803Z,74.11
2022-09-12T07:07:24.649Z,73.66
2022-09-12T07:07:56.255Z,73.64
2022-09-12T07:08:32.549Z,73.38
2022-09-12T07:09:05.968Z,72.00
2022-09-12T07:09:37.537Z,72.63
2022-09-12T07:10:11.941Z,71.98
2022-09-12T07:10:43.522Z,71.47
2022-09-12T07:11:16.267Z,71.24
2022-09-12T07:11:48.033Z,71.36
2022-09-12T07:12:19.785Z,71.29
2022-09-12T07:12:51.348Z,71.16
2022-09-12T07:13:22.927Z,70.61
2022-09-12T07:13:56.392Z,69.64
2022-09-12T07:14:27.890Z,69.96
2022-09-12T07:14:59.398Z,70.12
2022-09-12T07:15:32.052Z,69.55
2022-09-12T07:16:05.533Z,70.05
2022-09-12T07:16:37.441Z,69.92
2022-09-12T07:17:09.101Z,69.13
2022-09-12T07:17:40.718Z,69.24
2022-09-12T07:18:12.264Z,68.67
2022-09-12T07:18:46.143Z,68.65
2022-09-12T07:19:17.788Z,68.40
2022-09-12T07:19:49.343Z,69.56
2022-09-12T07:20:20.840Z,69.44
2022-09-12T07:20:53.037Z,69.85
2022-09-12T07:21:25.037Z,69.58
2022-09-12T07:21:58.686Z,68.73
2022-09-12T07:22:30.389Z,68.75
2022-09-12T07:23:01.937Z,68.84
2022-09-12T07:23:33.465Z,69.26
2022-09-12T07:24:05.725Z,69.16
2022-09-12T07:24:37.327Z,69.06
2022-09-12T07:25:09.034Z,69.32
2022-09-12T07:25:41.185Z,69.70
2022-09-12T07:26:14.822Z,68.71
2022-09-12T07:26:46.343Z,69.32
2022-09-12T07:27:17.853Z,68.73
2022-09-12T07:27:51.207Z,68.33
2022-09-12T07:28:24.676Z,67.16
2022-09-12T07:29:19.117Z,66.25
2022-09-12T07:29:51.419Z,65.61
2022-09-12T07:30:23.236Z,64.72
2022-09-12T07:30:55.204Z,63.40
2022-09-12T07:31:28.063Z,62.21
2022-09-12T07:32:01.614Z,62.08
2022-09-12T07:32:33.385Z,61.09
2022-09-12T07:33:04.951Z,61.19
2022-09-12T07:33:37.037Z,60.94
2022-09-12T07:34:08.834Z,60.10
2022-09-12T07:34:40.377Z,59.26
2022-09-12T07:35:11.943Z,59.44
2022-09-12T07:35:43.443Z,58.88
2022-09-12T07:36:16.652Z,58.44
2022-09-12T07:36:48.153Z,59.14
2022-09-12T07:37:19.645Z,59.35
2022-09-12T07:37:51.226Z,57.80
2022-09-12T07:38:22.787Z,58.45
2022-09-12T07:38:57.888Z,59.12
2022-09-12T07:39:29.531Z,58.54
2022-09-12T07:40:02.296Z,59.00